Bookmark and Share
Track history (hours):
 

CMA CGM Turquoise

Last reported at 2014-Apr-16 12:12 UTC. Time now 2014-Apr-16 13:39 UTC.
Position S 34°49' E 021°50'.

Length 258 m; draft 9.5 m.

Type: Ship (hazmat cat A). MMSI: 636014059.

NotesDate/timePositionNaut miles runAvg speedWind from/ knotsBaromVisibWave heightAir tempDewpointWater temp
2014-Apr-16 12:12S 34°49' E 021°50'1516.0
2014-Apr-16 11:16S 34°47' E 022°08'1216.0
2014-Apr-16 10:32S 34°45' E 022°22'10514.9
2014-Apr-16 03:27S 34°32' E 024°29'1614.5
2014-Apr-16 02:21S 34°30' E 024°48'1214.5
2014-Apr-16 01:29S 34°28' E 025°03'1414.3
2014-Apr-16 00:29S 34°25' E 025°20'1614.1
2014-Apr-15 23:22S 34°23' E 025°39'36214.6
2014-Apr-14 22:33S 30°18' E 030°54'1313.0
2014-Apr-14 21:33S 30°07' E 031°02'1514.9
2014-Apr-14 20:34S 29°53' E 031°08'6 0.6
2014-Apr-14 10:32S 29°53' E 031°01'0 0.0
2014-Apr-14 06:33S 29°53' E 031°01'2 2.1
2014-Apr-14 05:32S 29°52' E 031°04'8 1.0
2014-Apr-13 21:23S 29°46' E 031°09'0 0.0
2014-Apr-13 20:22S 29°46' E 031°09'0 0.0
2014-Apr-13 19:04S 29°46' E 031°09'0 0.0
2014-Apr-13 18:21S 29°46' E 031°09'0 0.0
2014-Apr-13 17:27S 29°46' E 031°09'0 0.0
2014-Apr-13 16:33S 29°46' E 031°09'0 0.0
2014-Apr-13 15:26S 29°46' E 031°09'0 0.0
2014-Apr-13 14:32S 29°46' E 031°09'0 0.0
2014-Apr-13 13:31S 29°46' E 031°09'0 0.0
2014-Apr-13 12:31S 29°46' E 031°09'0 0.0
2014-Apr-13 11:24S 29°46' E 031°09'0 0.0
2014-Apr-13 10:30S 29°46' E 031°09'0 0.0
2014-Apr-13 09:30S 29°46' E 031°09'0 0.0
2014-Apr-13 08:17S 29°46' E 031°09'0 0.0
2014-Apr-13 04:21S 29°46' E 031°09'0 0.0
2014-Apr-13 03:33S 29°46' E 031°09'0 0.0
2014-Apr-13 02:33S 29°46' E 031°09'0 0.0
2014-Apr-13 01:26S 29°46' E 031°09'0 0.0
2014-Apr-13 00:26S 29°46' E 031°09'0 0.0
2014-Apr-12 23:25S 29°46' E 031°09'0 0.0
2014-Apr-12 22:31S 29°46' E 031°09'0 0.0
2014-Apr-12 21:24S 29°46' E 031°09'0 0.0
2014-Apr-12 20:18S 29°46' E 031°09'0 0.0
2014-Apr-12 18:17S 29°46' E 031°09'0 0.0
2014-Apr-12 15:28S 29°46' E 031°09'0 0.0
2014-Apr-12 14:33S 29°46' E 031°09'0 0.0
2014-Apr-12 13:21S 29°46' E 031°09'0 0.0
2014-Apr-12 12:14S 29°46' E 031°09'0 0.0
2014-Apr-12 11:33S 29°46' E 031°09'0 0.0
2014-Apr-12 10:28S 29°46' E 031°09'0 0.0
2014-Apr-12 09:33S 29°46' E 031°09'0 0.0
2014-Apr-12 08:33S 29°46' E 031°09'3 3.4
2014-Apr-12 07:33S 29°47' E 031°13'9 8.5
2014-Apr-12 06:31S 29°46' E 031°23'5 4.7
2014-Apr-12 05:33S 29°45' E 031°28'1613.4
2014-Apr-12 04:20S 29°42' E 031°46'1314.3
2014-Apr-12 03:27S 29°39' E 032°01'  

Dump ship's entire track history

sailing weather and tide predictions

CMA CGM Turquoise — A8RB5 — position and weather